Paragould, AR

11:44 PM CDT on September 15, 2014 (GMT -0500)
William White Subdivision | Change Station
CLOSE
Current Station
Personal Weather Station
Location: Paragould, AR
Elevation: 331 ft
Nearby Weather Stations

Elev 331 ft 36.05 °N, 90.50 °W | Updated 23 seconds ago

Mostly Cloudy
Mostly Cloudy
69.8 °F
Feels Like 69.8 °F
N
0.0
Wind Variable Wind from WSW
Gusts 0.0 mph

Today
High -- | Low -- °F
--% Chance of Precip.
Yesterday
High -- | Low -- °F
Precip. -- in
6:44 AM 7:09 PM
Waning Gibbous, 49% visible
Pressure 30.10 in
Visibility 10.0 miles
Clouds Overcast 10000 ft
Dew Point 67 °F
Humidity 91%
Rainfall 0.00 in
Snow Depth Not available.
UV 0 out of 12
Pollen 8.20 out of 12
Air Quality Not available.
Flu Activity Not available.
METAR KJBR 160353Z AUTO 24006KT 10SM OVC100 22/18 A3011 RMK AO2 SLP192 T02170183

More Conditions Fewer Conditions

Pressure 30.10 in
Visibility 10.0 miles
Clouds Overcast 10000 ft
Dew Point 67 °F
Humidity 91%
Rainfall 0.00 in
Snow Depth Not available.
UV 0 out of 12
Pollen 8.20 out of 12
Air Quality Not available.
Flu Activity Not available.
METAR KJBR 160353Z AUTO 24006KT 10SM OVC100 22/18 A3011 RMK AO2 SLP192 T02170183

More Conditions Fewer Conditions

10-Day Weather Forecast

Almanac

Astronomy

Sep. 15, 2014 Rise Set
Actual Time 6:44 AM CDT 7:09 PM CDT
Civil Twilight 6:18 AM CDT 7:34 PM CDT
Nautical Twilight 5:48 AM CDT 8:05 PM CDT
Astronomical Twilight 5:17 AM CDT 8:35 PM CDT
Moon No Moon Rise 1:34 PM CDT (9/15)
Length of Visible Light 13h 16m
Length of Day
12h 24m
Tomorrow will be 2m 15s shorter.
Waning Gibbous, 49% of the Moon is Illuminated
Sep 16
Waning Gibbous
Sep 24
New
Oct 1
First Quarter
Oct 8
Full
Oct 15
Last Quarter

Yesterday's Extremes

State Highs State Lows

Community

WunderPhotos

Upload Photos

1,753,702 photos uploaded!

Nearby

Snow Depth

Station Depth Elevation
No new snow has been reported.

Earthquake Activity

City Distance Mag. Time & Date
No recent earthquake activity has been reported nearby.
Minimum magnitude displayed is 2.5.

Coastal Water Temperatures

Place Temperature
No Stations Reporting

Nearby Weather Stations